createdAt,value
2022-10-11T00:01:33.926Z,88.12
2022-10-11T00:04:00.453Z,88.84
2022-10-11T00:06:26.943Z,88.39
2022-10-11T00:08:53.297Z,88.61
2022-10-11T00:11:19.687Z,88.63
2022-10-11T00:13:46.085Z,89.02
2022-10-11T00:16:14.095Z,88.45
2022-10-11T00:18:40.969Z,88.21
2022-10-11T00:21:11.667Z,89.06
2022-10-11T00:23:38.446Z,89.06
2022-10-11T00:26:07.877Z,89.21
2022-10-11T00:28:35.596Z,88.66
2022-10-11T00:31:05.119Z,89.91
2022-10-11T00:33:31.748Z,90.16
2022-10-11T00:35:59.886Z,89.47
2022-10-11T00:38:26.351Z,89.28
2022-10-11T00:40:52.735Z,89.85
2022-10-11T00:43:22.624Z,90.13
2022-10-11T00:45:58.180Z,89.50
2022-10-11T00:48:42.722Z,90.05
2022-10-11T00:51:18.309Z,90.35
2022-10-11T00:53:48.215Z,90.07
2022-10-11T00:56:26.384Z,90.09
2022-10-11T00:58:55.921Z,88.74
2022-10-11T01:01:22.329Z,88.50
2022-10-11T01:03:48.889Z,89.03
2022-10-11T01:06:15.268Z,89.45
2022-10-11T01:08:41.851Z,89.46
2022-10-11T01:11:16.476Z,90.53
2022-10-11T01:13:48.526Z,90.67
2022-10-11T01:16:33.914Z,90.60
2022-10-11T01:19:15.426Z,91.03
2022-10-11T01:21:51.848Z,91.87
2022-10-11T01:24:49.479Z,91.42
2022-10-11T01:27:34.645Z,92.12
2022-10-11T01:30:33.011Z,91.65
2022-10-11T01:32:59.290Z,91.98
2022-10-11T01:35:31.148Z,92.87
2022-10-11T01:38:08.023Z,92.82
2022-10-11T01:40:43.874Z,92.77
2022-10-11T01:43:10.357Z,92.72
2022-10-11T01:45:37.743Z,92.41
2022-10-11T01:48:12.507Z,91.75
2022-10-11T01:50:58.696Z,92.79
2022-10-11T01:53:45.324Z,92.54
2022-10-11T01:56:39.332Z,92.74
2022-10-11T01:59:28.449Z,91.79
2022-10-11T02:02:04.902Z,91.31
2022-10-11T02:04:44.337Z,91.26
2022-10-11T02:07:28.060Z,91.76
2022-10-11T02:10:10.365Z,91.48
2022-10-11T02:12:42.369Z,91.08
2022-10-11T02:15:11.398Z,91.87
2022-10-11T02:17:47.861Z,91.15
2022-10-11T02:20:19.968Z,92.00
2022-10-11T02:22:51.219Z,91.82
2022-10-11T02:25:22.954Z,91.48
2022-10-11T02:27:51.872Z,92.40
2022-10-11T02:30:18.371Z,92.89
2022-10-11T02:32:47.783Z,93.61
2022-10-11T02:35:14.575Z,93.62
2022-10-11T02:37:43.870Z,93.15
2022-10-11T02:40:19.927Z,92.79
2022-10-11T02:43:01.887Z,92.89
2022-10-11T02:45:37.880Z,93.09
2022-10-11T02:48:06.466Z,92.77
2022-10-11T02:50:33.317Z,92.87
2022-10-11T02:52:59.650Z,93.09
2022-10-11T02:55:26.095Z,93.62
2022-10-11T02:57:52.455Z,92.59
2022-10-11T03:00:18.960Z,93.45
2022-10-11T03:02:45.315Z,93.63
2022-10-11T03:05:11.752Z,92.51
2022-10-11T03:07:38.172Z,93.02
2022-10-11T03:10:06.002Z,93.76
2022-10-11T03:12:32.898Z,93.11
2022-10-11T03:14:59.252Z,93.47
2022-10-11T03:17:41.270Z,93.25
2022-10-11T03:20:08.080Z,93.74
2022-10-11T03:22:34.708Z,93.58
2022-10-11T03:25:04.114Z,92.94
2022-10-11T03:27:32.613Z,93.11
2022-10-11T03:29:59.452Z,92.68
2022-10-11T03:32:26.132Z,92.99
2022-10-11T03:34:52.548Z,92.68
2022-10-11T03:37:18.899Z,93.10
2022-10-11T03:39:45.750Z,92.45
2022-10-11T03:42:13.124Z,93.31
2022-10-11T03:44:39.665Z,93.25
2022-10-11T03:47:06.065Z,93.19
2022-10-11T03:49:32.393Z,92.73
2022-10-11T03:51:59.106Z,93.29
2022-10-11T03:54:25.781Z,92.70
2022-10-11T03:56:52.363Z,93.10
2022-10-11T03:59:18.708Z,92.38
2022-10-11T04:01:45.076Z,92.61
2022-10-11T04:04:11.667Z,92.62
2022-10-11T04:06:37.998Z,92.66
2022-10-11T04:09:04.442Z,93.50
2022-10-11T04:11:30.783Z,93.68
2022-10-11T04:13:57.191Z,93.54
2022-10-11T04:16:23.554Z,94.53
2022-10-11T04:18:49.907Z,93.83
2022-10-11T04:21:16.337Z,93.80
2022-10-11T04:23:42.743Z,93.87
2022-10-11T04:26:09.237Z,93.11
2022-10-11T04:28:36.125Z,93.55
2022-10-11T04:31:04.953Z,93.82
2022-10-11T04:33:31.300Z,92.52
2022-10-11T04:35:57.632Z,93.47
2022-10-11T04:38:24.413Z,92.98
2022-10-11T04:40:51.089Z,93.04
2022-10-11T04:43:18.557Z,93.79
2022-10-11T04:45:45.039Z,93.02
2022-10-11T04:48:11.377Z,93.77
2022-10-11T04:50:37.779Z,93.81
2022-10-11T04:53:04.119Z,93.27
2022-10-11T04:55:30.483Z,92.88
2022-10-11T04:57:56.876Z,92.58
2022-10-11T05:00:23.355Z,91.40
2022-10-11T05:02:49.710Z,91.05
2022-10-11T05:05:17.571Z,91.63
2022-10-11T05:07:44.269Z,92.12
2022-10-11T05:10:10.940Z,92.37
2022-10-11T05:12:37.316Z,93.55
2022-10-11T05:15:04.272Z,93.58
2022-10-11T05:17:32.168Z,93.13
2022-10-11T05:19:58.577Z,93.65
2022-10-11T05:22:25.052Z,93.31
2022-10-11T05:24:51.447Z,93.58
2022-10-11T05:27:17.776Z,92.76
2022-10-11T05:29:44.113Z,92.37
2022-10-11T05:32:10.627Z,91.78
2022-10-11T05:34:36.950Z,91.87
2022-10-11T05:37:03.350Z,92.02
2022-10-11T05:39:29.743Z,92.70
2022-10-11T05:41:56.090Z,92.66
2022-10-11T05:44:22.997Z,92.56
2022-10-11T05:46:49.439Z,93.14
2022-10-11T05:49:15.757Z,93.17
2022-10-11T05:51:42.136Z,93.10
2022-10-11T05:54:08.455Z,92.09
2022-10-11T05:56:34.854Z,91.36
2022-10-11T05:59:02.555Z,91.29
2022-10-11T06:01:29.347Z,91.06
2022-10-11T06:03:55.966Z,90.22
2022-10-11T06:06:22.804Z,90.55
2022-10-11T06:08:50.252Z,91.46
2022-10-11T06:11:22.596Z,90.81
2022-10-11T06:13:49.031Z,90.06
2022-10-11T06:16:16.030Z,90.94
2022-10-11T06:18:42.394Z,90.86
2022-10-11T06:21:08.915Z,91.57
2022-10-11T06:23:35.240Z,91.19
2022-10-11T06:26:05.793Z,91.39
2022-10-11T06:28:33.429Z,91.90
2022-10-11T06:31:00.021Z,91.85
2022-10-11T06:33:26.999Z,91.99
2022-10-11T06:36:01.824Z,91.56
2022-10-11T06:38:28.496Z,92.13
2022-10-11T06:40:54.906Z,91.73
2022-10-11T06:43:21.372Z,91.43
2022-10-11T06:45:47.709Z,90.80
2022-10-11T06:48:14.258Z,90.81
2022-10-11T06:50:58.988Z,90.96
2022-10-11T06:53:26.896Z,90.85
2022-10-11T06:55:53.284Z,90.93
2022-10-11T06:58:19.646Z,91.16
2022-10-11T07:00:46.009Z,91.34
2022-10-11T07:03:12.432Z,91.91
2022-10-11T07:05:38.804Z,91.46
2022-10-11T07:08:05.210Z,91.87
2022-10-11T07:10:31.552Z,91.84
2022-10-11T07:12:57.911Z,92.32
2022-10-11T07:15:24.280Z,92.37
2022-10-11T07:17:50.614Z,91.72
2022-10-11T07:20:17.005Z,92.02
2022-10-11T07:22:43.380Z,92.15
2022-10-11T07:25:09.781Z,91.75
2022-10-11T07:27:36.168Z,92.31
2022-10-11T07:30:02.648Z,91.62
2022-10-11T07:32:28.991Z,91.50
2022-10-11T07:34:56.467Z,90.70
2022-10-11T07:37:22.862Z,90.51
2022-10-11T07:39:49.554Z,90.62
2022-10-11T07:42:15.968Z,89.46
2022-10-11T07:44:42.324Z,90.02
2022-10-11T07:47:11.204Z,89.26
2022-10-11T07:49:37.959Z,89.69
2022-10-11T07:52:04.818Z,89.19
2022-10-11T07:54:32.665Z,89.12
2022-10-11T07:56:59.135Z,88.39
2022-10-11T07:59:25.487Z,89.08
2022-10-11T08:01:51.895Z,89.48
2022-10-11T08:04:18.338Z,89.08
2022-10-11T08:06:44.663Z,88.18
2022-10-11T08:09:12.099Z,88.28
2022-10-11T08:11:39.255Z,88.68
2022-10-11T08:14:08.992Z,88.99
2022-10-11T08:16:36.407Z,89.18
2022-10-11T08:19:03.254Z,88.55
2022-10-11T08:21:30.284Z,88.10
2022-10-11T08:23:56.805Z,88.27
2022-10-11T08:26:23.311Z,87.64
2022-10-11T08:28:49.787Z,86.86
2022-10-11T08:31:16.764Z,86.83
2022-10-11T08:33:43.599Z,86.44
2022-10-11T08:36:10.766Z,86.12
2022-10-11T08:38:38.204Z,86.21
2022-10-11T08:41:23.766Z,86.59
2022-10-11T08:44:00.890Z,85.95
2022-10-11T08:46:33.233Z,86.56
2022-10-11T08:49:01.653Z,86.32
2022-10-11T08:51:32.345Z,86.43
2022-10-11T08:54:18.842Z,86.93
2022-10-11T08:56:46.011Z,85.77
2022-10-11T08:59:12.369Z,86.87
2022-10-11T09:02:15.086Z,86.39
2022-10-11T09:04:41.503Z,86.26
2022-10-11T09:07:19.237Z,87.50
2022-10-11T09:10:25.470Z,87.16
2022-10-11T09:13:10.264Z,87.45
2022-10-11T09:15:58.236Z,86.62
2022-10-11T09:18:48.055Z,86.95
2022-10-11T09:21:44.278Z,85.50
2022-10-11T09:24:39.698Z,86.73
2022-10-11T09:27:50.267Z,85.73
2022-10-11T09:30:16.555Z,86.45
2022-10-11T09:32:47.636Z,84.67
2022-10-11T09:35:19.842Z,85.42
2022-10-11T09:37:59.404Z,85.30
2022-10-11T09:40:44.681Z,83.59
2022-10-11T09:43:11.260Z,84.39
2022-10-11T09:45:38.652Z,84.21
2022-10-11T09:48:07.172Z,84.72
2022-10-11T09:50:34.319Z,84.39
2022-10-11T09:53:05.010Z,83.72
2022-10-11T09:55:39.392Z,83.95
2022-10-11T09:58:24.595Z,83.67
2022-10-11T10:01:07.595Z,83.30
2022-10-11T10:03:40.696Z,82.28
2022-10-11T10:06:24.925Z,83.52
2022-10-11T10:08:51.650Z,81.88
2022-10-11T10:11:19.179Z,82.93
2022-10-11T10:13:51.520Z,82.51
2022-10-11T10:16:33.823Z,82.24
2022-10-11T10:19:01.667Z,80.86
2022-10-11T10:21:35.804Z,79.73
2022-10-11T10:24:29.766Z,79.54
2022-10-11T10:27:14.340Z,79.40
2022-10-11T10:29:41.307Z,77.82
2022-10-11T10:32:20.737Z,78.24
2022-10-11T10:34:56.712Z,77.89
2022-10-11T10:37:38.668Z,77.19
2022-10-11T10:40:14.256Z,78.93
2022-10-11T10:42:40.617Z,78.29
2022-10-11T10:45:20.120Z,77.60
2022-10-11T10:48:16.661Z,74.50
2022-10-11T10:51:00.960Z,75.26
2022-10-11T10:53:49.471Z,75.34
2022-10-11T10:56:22.789Z,73.22
2022-10-11T10:59:14.054Z,72.50
2022-10-11T11:01:54.291Z,71.68
2022-10-11T11:04:32.024Z,70.54
2022-10-11T11:07:22.334Z,67.72
2022-10-11T11:09:56.598Z,68.18
2022-10-11T11:12:28.949Z,68.25
2022-10-11T11:15:27.155Z,69.13
2022-10-11T11:18:16.707Z,70.10
2022-10-11T11:20:59.971Z,70.14
2022-10-11T11:23:44.842Z,72.66
2022-10-11T11:26:37.130Z,73.03
2022-10-11T11:29:16.219Z,73.47
2022-10-11T11:32:17.315Z,74.21
2022-10-11T11:34:48.245Z,73.01
2022-10-11T11:37:30.902Z,74.89
2022-10-11T11:40:02.491Z,75.16
2022-10-11T11:42:54.172Z,75.13
2022-10-11T11:45:23.243Z,74.99
2022-10-11T11:48:20.296Z,74.59
2022-10-11T11:50:55.264Z,73.49
2022-10-11T11:53:42.218Z,74.63
2022-10-11T11:56:33.078Z,76.06
2022-10-11T11:59:17.664Z,77.37
2022-10-11T12:02:02.156Z,76.58
2022-10-11T12:04:34.409Z,75.64
2022-10-11T12:07:18.571Z,76.98
2022-10-11T12:09:50.445Z,76.47
2022-10-11T12:12:37.308Z,77.65
2022-10-11T12:15:21.031Z,77.46
2022-10-11T12:17:53.134Z,78.41
2022-10-11T12:20:27.232Z,78.36
2022-10-11T12:22:58.233Z,78.79
2022-10-11T12:25:28.377Z,79.91
2022-10-11T12:27:57.511Z,80.09
2022-10-11T12:30:42.541Z,78.92
2022-10-11T12:33:25.691Z,79.76
2022-10-11T12:35:54.878Z,80.96
2022-10-11T12:38:24.195Z,79.99
2022-10-11T12:40:54.234Z,79.35
2022-10-11T12:43:27.591Z,79.94
2022-10-11T12:45:54.049Z,79.94
2022-10-11T12:48:43.437Z,79.49
2022-10-11T12:51:15.473Z,79.89
2022-10-11T12:54:25.433Z,79.09
2022-10-11T12:57:27.864Z,79.41
2022-10-11T12:59:54.475Z,78.61
2022-10-11T13:02:29.818Z,78.82
2022-10-11T13:05:19.380Z,78.56
2022-10-11T13:07:46.473Z,79.32
2022-10-11T13:10:19.875Z,79.05
2022-10-11T13:12:48.500Z,79.04
2022-10-11T13:15:18.626Z,78.47
2022-10-11T13:17:45.429Z,78.32
2022-10-11T13:20:18.111Z,78.63
2022-10-11T13:22:50.689Z,77.81
2022-10-11T13:25:29.170Z,77.88
2022-10-11T13:27:57.687Z,77.42
2022-10-11T13:30:35.075Z,76.40
2022-10-11T13:33:08.491Z,75.67
2022-10-11T13:35:37.176Z,76.01
2022-10-11T13:38:07.881Z,75.70
2022-10-11T13:40:35.707Z,74.58
2022-10-11T13:43:05.091Z,76.11
2022-10-11T13:45:32.658Z,75.31
2022-10-11T13:47:59.107Z,74.93
2022-10-11T13:50:34.397Z,75.17
2022-10-11T13:53:02.214Z,75.36
2022-10-11T13:55:33.688Z,74.94
2022-10-11T13:58:03.676Z,74.63
2022-10-11T14:00:37.311Z,74.58
2022-10-11T14:03:12.520Z,74.72
2022-10-11T14:05:42.354Z,74.32
2022-10-11T14:08:38.823Z,74.27
2022-10-11T14:11:07.567Z,74.45
2022-10-11T14:13:45.871Z,74.16
2022-10-11T14:16:28.230Z,73.70
2022-10-11T14:19:00.329Z,73.75
2022-10-11T14:21:31.395Z,71.83
2022-10-11T14:24:10.408Z,72.04
2022-10-11T14:26:40.217Z,72.71
2022-10-11T14:29:12.121Z,71.91
2022-10-11T14:31:42.017Z,71.71
2022-10-11T14:34:16.528Z,70.22
2022-10-11T14:36:42.861Z,70.65
2022-10-11T14:39:14.702Z,71.53
2022-10-11T14:41:41.051Z,70.29
2022-10-11T14:44:07.404Z,69.97
2022-10-11T14:46:35.776Z,70.45
2022-10-11T14:49:02.288Z,70.27
2022-10-11T14:51:34.250Z,71.39
2022-10-11T14:54:00.579Z,72.68
2022-10-11T14:56:26.902Z,74.11
2022-10-11T14:58:53.338Z,73.70
2022-10-11T15:01:19.775Z,73.17
2022-10-11T15:03:46.194Z,73.62
2022-10-11T15:06:34.040Z,72.90
2022-10-11T15:09:00.456Z,73.68
2022-10-11T15:11:26.807Z,73.37
2022-10-11T15:13:53.263Z,72.17
2022-10-11T15:16:20.942Z,71.94
2022-10-11T15:18:51.049Z,71.59
2022-10-11T15:21:22.954Z,71.38
2022-10-11T15:23:50.728Z,71.82
2022-10-11T15:26:19.756Z,71.39
2022-10-11T15:28:47.233Z,71.62
2022-10-11T15:31:13.979Z,72.00
2022-10-11T15:33:41.187Z,73.01
2022-10-11T15:36:12.438Z,73.44
2022-10-11T15:38:38.910Z,73.49
2022-10-11T15:41:05.417Z,73.32
2022-10-11T15:43:31.889Z,74.50
2022-10-11T15:45:58.399Z,75.34
2022-10-11T15:48:26.789Z,76.02
2022-10-11T15:50:54.149Z,76.31
2022-10-11T15:53:24.599Z,77.23
2022-10-11T15:55:53.338Z,77.77
2022-10-11T15:58:32.605Z,78.54
2022-10-11T16:01:05.328Z,78.55
2022-10-11T16:03:33.196Z,79.46
2022-10-11T16:06:04.842Z,79.58
2022-10-11T16:08:32.267Z,80.26
2022-10-11T16:10:59.331Z,81.47
2022-10-11T16:13:25.668Z,81.23
2022-10-11T16:15:52.108Z,81.49
2022-10-11T16:18:20.144Z,82.12
2022-10-11T16:20:48.872Z,81.93
2022-10-11T16:23:15.630Z,82.80
2022-10-11T16:25:42.358Z,82.50
2022-10-11T16:28:10.151Z,83.19
2022-10-11T16:30:42.985Z,83.40
2022-10-11T16:33:09.514Z,82.90
2022-10-11T16:35:36.048Z,83.66
2022-10-11T16:38:02.602Z,83.92
2022-10-11T16:40:29.985Z,84.26
2022-10-11T16:42:56.373Z,84.64
2022-10-11T16:45:22.862Z,84.01
2022-10-11T16:47:50.121Z,84.34
2022-10-11T16:50:16.543Z,84.05
2022-10-11T16:52:44.150Z,84.61
2022-10-11T16:55:10.537Z,85.00
2022-10-11T16:57:37.779Z,84.88
2022-10-11T17:00:09.246Z,85.46
2022-10-11T17:02:35.931Z,85.40
2022-10-11T17:05:02.434Z,85.38
2022-10-11T17:07:29.475Z,85.81
2022-10-11T17:09:56.023Z,85.49
2022-10-11T17:12:23.516Z,85.45
2022-10-11T17:14:50.986Z,86.12
2022-10-11T17:17:17.961Z,86.27
2022-10-11T17:19:45.553Z,86.01
2022-10-11T17:22:14.154Z,86.86
2022-10-11T17:24:40.594Z,87.22
2022-10-11T17:27:07.491Z,87.24
2022-10-11T17:29:33.992Z,87.70
2022-10-11T17:32:00.663Z,87.66
2022-10-11T17:34:27.501Z,87.59
2022-10-11T17:36:54.099Z,87.13
2022-10-11T17:39:22.842Z,87.23
2022-10-11T17:41:49.855Z,87.12
2022-10-11T17:44:19.299Z,87.27
2022-10-11T17:46:46.966Z,87.71
2022-10-11T17:49:13.809Z,87.79
2022-10-11T17:51:42.992Z,87.28
2022-10-11T17:54:12.971Z,87.69
2022-10-11T17:56:41.300Z,87.63
2022-10-11T17:59:10.942Z,88.54
2022-10-11T18:01:37.392Z,88.46
2022-10-11T18:04:06.034Z,87.95
2022-10-11T18:06:38.887Z,88.66
2022-10-11T18:09:05.326Z,88.74
2022-10-11T18:11:31.971Z,88.39
2022-10-11T18:13:58.362Z,87.91
2022-10-11T18:16:29.538Z,88.28
2022-10-11T18:18:57.310Z,88.89
2022-10-11T18:21:34.227Z,88.94
2022-10-11T18:24:08.755Z,88.58
2022-10-11T18:26:35.300Z,88.56
2022-10-11T18:29:01.663Z,88.83
2022-10-11T18:31:30.451Z,88.90
2022-10-11T18:33:58.405Z,88.72
2022-10-11T18:36:26.859Z,89.06
2022-10-11T18:38:55.682Z,89.15
2022-10-11T18:41:24.090Z,88.94
2022-10-11T18:43:52.920Z,90.15
2022-10-11T18:46:20.159Z,90.10
2022-10-11T18:48:48.582Z,89.15
2022-10-11T18:51:20.691Z,89.36
2022-10-11T18:53:48.026Z,89.50
2022-10-11T18:56:16.955Z,89.96
2022-10-11T18:58:44.505Z,89.11
2022-10-11T19:01:15.836Z,90.30
2022-10-11T19:03:43.403Z,89.81
2022-10-11T19:06:18.462Z,90.59
2022-10-11T19:08:46.643Z,90.27
2022-10-11T19:11:15.597Z,91.26
2022-10-11T19:13:43.066Z,90.25
2022-10-11T19:16:15.135Z,91.23
2022-10-11T19:18:44.431Z,91.07
2022-10-11T19:21:12.750Z,90.95
2022-10-11T19:23:44.169Z,91.14
2022-10-11T19:26:26.931Z,90.91
2022-10-11T19:29:18.848Z,91.74
2022-10-11T19:31:48.251Z,91.98
2022-10-11T19:34:15.167Z,91.75
2022-10-11T19:36:42.742Z,91.64
2022-10-11T19:39:14.194Z,91.85
2022-10-11T19:41:41.640Z,92.70
2022-10-11T19:44:07.987Z,92.07
2022-10-11T19:49:24.642Z,92.80
2022-10-11T19:51:52.008Z,91.48
2022-10-11T19:54:18.530Z,91.56
2022-10-11T19:56:45.083Z,91.22
2022-10-11T19:59:11.967Z,91.36
2022-10-11T20:01:39.665Z,92.43
2022-10-11T20:04:08.511Z,91.58
2022-10-11T20:06:38.627Z,92.12
2022-10-11T20:09:27.939Z,92.11
2022-10-11T20:11:54.628Z,92.12
2022-10-11T20:14:21.197Z,92.13
2022-10-11T20:16:49.823Z,91.69
2022-10-11T20:19:16.409Z,91.81
2022-10-11T20:21:42.741Z,91.34
2022-10-11T20:24:09.475Z,92.17
2022-10-11T20:26:35.832Z,92.19
2022-10-11T20:29:02.197Z,92.23
2022-10-11T20:31:32.774Z,92.83
2022-10-11T20:34:02.072Z,92.04
2022-10-11T20:36:30.061Z,92.00
2022-10-11T20:38:57.939Z,91.68
2022-10-11T20:41:27.305Z,91.26
2022-10-11T20:43:56.031Z,91.96
2022-10-11T20:46:26.180Z,91.53
2022-10-11T20:49:00.403Z,91.41
2022-10-11T20:51:29.788Z,91.53
2022-10-11T20:53:56.467Z,91.07
2022-10-11T20:56:23.484Z,92.03
2022-10-11T20:58:52.394Z,91.78
2022-10-11T21:01:26.294Z,91.52
2022-10-11T21:03:53.475Z,91.50
2022-10-11T21:06:19.855Z,92.05
2022-10-11T21:08:46.185Z,91.87
2022-10-11T21:11:12.527Z,92.16
2022-10-11T21:13:39.001Z,91.91
2022-10-11T21:16:06.839Z,92.24
2022-10-11T21:18:35.349Z,91.97
2022-10-11T21:21:09.925Z,91.51
2022-10-11T21:23:36.536Z,91.96
2022-10-11T21:26:04.815Z,90.78
2022-10-11T21:28:31.339Z,91.89
2022-10-11T21:31:10.380Z,91.61
2022-10-11T21:33:37.186Z,91.38
2022-10-11T21:36:12.367Z,91.83
2022-10-11T21:38:39.258Z,91.96
2022-10-11T21:41:07.523Z,91.43
2022-10-11T21:43:35.667Z,91.37
2022-10-11T21:46:13.876Z,91.73
2022-10-11T21:48:40.379Z,91.63
2022-10-11T21:51:07.336Z,91.75
2022-10-11T21:53:33.905Z,91.08
2022-10-11T21:56:01.166Z,91.25
2022-10-11T21:58:27.936Z,91.41
2022-10-11T22:00:54.663Z,91.49
2022-10-11T22:03:21.054Z,91.34
2022-10-11T22:05:47.824Z,91.54
2022-10-11T22:08:14.928Z,90.90
2022-10-11T22:10:51.638Z,91.60
2022-10-11T22:13:17.978Z,91.24
2022-10-11T22:15:44.348Z,92.18
2022-10-11T22:18:10.757Z,91.72
2022-10-11T22:20:37.134Z,92.33
2022-10-11T22:23:03.674Z,91.79
2022-10-11T22:25:30.539Z,91.58
2022-10-11T22:27:56.881Z,91.83
2022-10-11T22:30:23.215Z,91.38
2022-10-11T22:32:51.392Z,91.95
2022-10-11T22:35:18.292Z,92.27
2022-10-11T22:37:44.632Z,92.16
2022-10-11T22:40:11.276Z,92.07
2022-10-11T22:42:37.845Z,91.56
2022-10-11T22:45:05.072Z,91.73
2022-10-11T22:47:31.390Z,91.87
2022-10-11T22:49:57.739Z,91.52
2022-10-11T22:52:24.076Z,91.87
2022-10-11T22:54:50.475Z,91.94
2022-10-11T22:57:16.789Z,92.36
2022-10-11T22:59:43.097Z,92.32
2022-10-11T23:02:09.438Z,92.37
2022-10-11T23:04:35.767Z,92.61
2022-10-11T23:07:04.949Z,92.60
2022-10-11T23:09:31.722Z,92.81
2022-10-11T23:11:59.085Z,92.77
2022-10-11T23:14:25.458Z,93.37
2022-10-11T23:16:52.303Z,92.88
2022-10-11T23:19:19.008Z,92.66
2022-10-11T23:21:45.361Z,92.96
2022-10-11T23:24:11.735Z,93.37
2022-10-11T23:26:38.191Z,93.38
2022-10-11T23:29:04.511Z,93.32
2022-10-11T23:31:30.869Z,93.80
2022-10-11T23:33:57.518Z,93.29
2022-10-11T23:36:25.731Z,93.82
2022-10-11T23:38:57.247Z,93.22
2022-10-11T23:41:25.731Z,93.41
2022-10-11T23:43:52.243Z,93.66
2022-10-11T23:46:18.925Z,93.23
2022-10-11T23:48:45.248Z,93.47
2022-10-11T23:51:11.729Z,93.37
2022-10-11T23:53:38.130Z,92.97
2022-10-11T23:56:05.476Z,92.78
2022-10-11T23:58:31.836Z,92.99
